createdAt,value
2022-11-01T00:00:24.821Z,13.30
2022-11-01T00:03:16.832Z,11.90
2022-11-01T00:05:49.639Z,11.80
2022-11-01T00:08:21.698Z,12.10
2022-11-01T00:10:53.823Z,12.60
2022-11-01T00:13:25.873Z,16.40
2022-11-01T00:15:58.055Z,19.40
2022-11-01T00:18:30.478Z,14.40
2022-11-01T00:21:02.547Z,14.70
2022-11-01T00:23:34.841Z,12.20
2022-11-01T00:26:07.796Z,12.00
2022-11-01T00:28:40.072Z,10.70
2022-11-01T00:31:12.950Z,11.50
2022-11-01T00:33:45.341Z,11.70
2022-11-01T00:36:17.725Z,9.80
2022-11-01T00:38:53.868Z,11.60
2022-11-01T00:41:25.983Z,12.00
2022-11-01T00:43:58.021Z,12.00
2022-11-01T00:46:30.729Z,11.10
2022-11-01T00:49:03.076Z,10.30
2022-11-01T00:51:35.064Z,11.40
2022-11-01T00:54:07.578Z,10.10
2022-11-01T00:56:39.632Z,9.30
2022-11-01T00:59:11.631Z,10.00
2022-11-01T01:01:43.725Z,10.00
2022-11-01T01:04:15.852Z,11.50
2022-11-01T01:06:47.844Z,12.70
2022-11-01T01:09:19.863Z,12.90
2022-11-01T01:11:51.949Z,13.50
2022-11-01T01:14:26.498Z,12.60
2022-11-01T01:17:02.177Z,12.00
2022-11-01T01:19:34.267Z,11.10
2022-11-01T01:22:06.306Z,10.70
2022-11-01T01:24:39.037Z,11.80
2022-11-01T01:27:11.026Z,12.10
2022-11-01T01:29:44.586Z,12.50
2022-11-01T01:32:18.281Z,13.70
2022-11-01T01:34:51.104Z,13.80
2022-11-01T01:37:23.259Z,17.90
2022-11-01T01:39:55.582Z,17.70
2022-11-01T01:42:31.894Z,16.10
2022-11-01T01:45:33.144Z,15.60
2022-11-01T01:48:16.629Z,13.30
2022-11-01T01:50:57.246Z,12.80
2022-11-01T01:53:32.744Z,13.90
2022-11-01T01:56:08.289Z,13.40
2022-11-01T01:58:46.258Z,12.90
2022-11-01T02:01:18.474Z,14.00
2022-11-01T02:03:51.296Z,13.70
2022-11-01T02:06:25.800Z,13.30
2022-11-01T02:09:00.818Z,13.70
2022-11-01T02:11:32.919Z,14.10
2022-11-01T02:14:05.576Z,14.00
2022-11-01T02:16:53.259Z,12.90
2022-11-01T02:19:54.916Z,14.90
2022-11-01T02:22:41.752Z,14.00
2022-11-01T02:25:55.218Z,12.60
2022-11-01T02:28:46.378Z,11.40
2022-11-01T02:31:36.569Z,12.80
2022-11-01T02:34:18.111Z,12.00
2022-11-01T02:36:57.265Z,11.00
2022-11-01T02:39:33.326Z,12.20
2022-11-01T02:42:11.151Z,12.40
2022-11-01T02:44:46.476Z,12.50
2022-11-01T02:47:19.377Z,13.50
2022-11-01T02:49:57.229Z,12.40
2022-11-01T02:52:33.087Z,14.80
2022-11-01T02:55:29.899Z,12.50
2022-11-01T02:58:05.725Z,12.40
2022-11-01T03:00:39.537Z,12.50
2022-11-01T03:03:16.573Z,13.90
2022-11-01T03:05:59.006Z,13.40
2022-11-01T03:08:34.476Z,13.90
2022-11-01T03:11:11.555Z,13.00
2022-11-01T03:13:54.662Z,12.30
2022-11-01T03:16:32.691Z,13.40
2022-11-01T03:19:27.029Z,14.10
2022-11-01T03:22:05.114Z,13.40
2022-11-01T03:24:42.196Z,12.20
2022-11-01T03:27:20.908Z,12.90
2022-11-01T03:29:59.897Z,11.50
2022-11-01T03:32:37.603Z,12.00
2022-11-01T03:35:16.261Z,10.80
2022-11-01T03:37:50.863Z,11.00
2022-11-01T03:40:24.743Z,10.20
2022-11-01T03:43:00.086Z,11.60
2022-11-01T03:45:35.392Z,11.30
2022-11-01T03:48:08.129Z,9.90
2022-11-01T03:50:41.124Z,11.40
2022-11-01T03:53:13.092Z,11.00
2022-11-01T03:55:45.410Z,11.40
2022-11-01T03:58:17.603Z,12.80
2022-11-01T04:00:50.976Z,11.00
2022-11-01T04:03:23.169Z,11.30
2022-11-01T04:05:55.159Z,9.50
2022-11-01T04:08:27.235Z,9.60
2022-11-01T04:10:59.327Z,10.00
2022-11-01T04:13:31.355Z,8.80
2022-11-01T04:16:21.110Z,10.10
2022-11-01T04:19:10.917Z,9.40
2022-11-01T04:21:43.579Z,8.20
2022-11-01T04:24:21.255Z,9.50
2022-11-01T04:26:53.931Z,9.00
2022-11-01T04:29:25.839Z,9.80
2022-11-01T04:31:57.902Z,11.30
2022-11-01T04:34:45.266Z,11.40
2022-11-01T04:37:17.318Z,11.70
2022-11-01T04:39:49.362Z,11.40
2022-11-01T04:42:21.450Z,10.70
2022-11-01T04:44:53.437Z,10.20
2022-11-01T04:47:25.457Z,10.40
2022-11-01T04:49:57.493Z,10.70
2022-11-01T04:52:29.739Z,9.90
2022-11-01T04:55:01.685Z,10.00
2022-11-01T04:57:38.908Z,8.70
2022-11-01T05:00:14.282Z,9.20
2022-11-01T05:02:46.475Z,12.50
2022-11-01T05:05:19.176Z,12.70
2022-11-01T05:07:51.257Z,12.20
2022-11-01T05:10:23.312Z,11.70
2022-11-01T05:12:55.405Z,11.80
2022-11-01T05:15:27.446Z,10.50
2022-11-01T05:17:59.562Z,10.30
2022-11-01T05:20:32.064Z,9.70
2022-11-01T05:23:05.859Z,9.90
2022-11-01T05:25:38.522Z,10.00
2022-11-01T05:28:14.182Z,9.30
2022-11-01T05:30:46.268Z,9.70
2022-11-01T05:33:18.329Z,9.00
2022-11-01T05:35:50.355Z,9.70
2022-11-01T05:38:22.436Z,10.00
2022-11-01T05:40:54.502Z,11.30
2022-11-01T05:43:26.570Z,9.20
2022-11-01T05:45:58.507Z,10.00
2022-11-01T05:48:30.545Z,9.00
2022-11-01T05:51:02.665Z,9.40
2022-11-01T05:53:34.703Z,8.90
2022-11-01T05:56:06.973Z,10.10
2022-11-01T05:58:38.987Z,9.90
2022-11-01T06:01:11.500Z,9.50
2022-11-01T06:03:43.684Z,9.10
2022-11-01T06:06:15.624Z,14.60
2022-11-01T06:08:47.662Z,15.30
2022-11-01T06:11:19.675Z,10.80
2022-11-01T06:13:56.220Z,11.50
2022-11-01T06:16:28.749Z,12.80
2022-11-01T06:19:00.788Z,14.10
2022-11-01T06:21:32.778Z,13.30
2022-11-01T06:24:05.048Z,11.00
2022-11-01T06:26:37.118Z,11.50
2022-11-01T06:29:09.231Z,12.00
2022-11-01T06:31:41.731Z,12.70
2022-11-01T06:34:13.900Z,12.10
2022-11-01T06:36:46.224Z,10.10
2022-11-01T06:39:18.904Z,14.00
2022-11-01T06:41:50.937Z,13.00
2022-11-01T06:44:23.212Z,13.20
2022-11-01T06:46:56.116Z,29.10
2022-11-01T06:49:29.597Z,20.60
2022-11-01T06:52:01.867Z,20.30
2022-11-01T06:54:33.935Z,27.20
2022-11-01T06:57:06.146Z,20.30
2022-11-01T06:59:38.166Z,26.80
2022-11-01T07:02:14.451Z,20.80
2022-11-01T07:04:47.547Z,14.40
2022-11-01T07:07:19.742Z,14.10
2022-11-01T07:09:51.733Z,16.50
2022-11-01T07:12:23.744Z,27.10
2022-11-01T07:14:55.790Z,29.50
2022-11-01T07:17:27.850Z,32.00
2022-11-01T07:19:59.890Z,40.30
2022-11-01T07:22:31.930Z,38.20
2022-11-01T07:25:04.285Z,35.50
2022-11-01T07:27:38.085Z,18.20
2022-11-01T07:30:13.463Z,19.50
2022-11-01T07:32:45.427Z,18.30
2022-11-01T07:35:17.665Z,20.90
2022-11-01T07:37:49.629Z,14.30
2022-11-01T07:40:27.664Z,11.70
2022-11-01T07:43:02.129Z,14.10
2022-11-01T07:45:36.138Z,13.20
2022-11-01T07:48:11.419Z,16.70
2022-11-01T07:50:44.314Z,17.20
2022-11-01T07:53:18.476Z,36.90
2022-11-01T07:55:50.930Z,32.80
2022-11-01T07:58:23.071Z,27.60
2022-11-01T08:00:55.237Z,27.40
2022-11-01T08:03:27.356Z,22.50
2022-11-01T08:05:59.376Z,16.70
2022-11-01T08:08:31.591Z,15.30
2022-11-01T08:11:04.041Z,16.50
2022-11-01T08:13:36.083Z,19.40
2022-11-01T08:16:09.160Z,17.30
2022-11-01T08:18:41.109Z,16.50
2022-11-01T08:21:18.851Z,18.50
2022-11-01T08:23:51.179Z,32.10
2022-11-01T08:26:23.223Z,20.50
2022-11-01T08:28:55.520Z,19.90
2022-11-01T08:31:27.556Z,17.10
2022-11-01T08:33:59.571Z,16.10
2022-11-01T08:36:31.687Z,14.40
2022-11-01T08:39:03.850Z,20.30
2022-11-01T08:41:37.464Z,18.80
2022-11-01T08:44:09.831Z,20.40
2022-11-01T08:46:43.151Z,21.40
2022-11-01T08:49:15.754Z,18.30
2022-11-01T08:51:47.768Z,17.70
2022-11-01T08:54:19.783Z,18.00
2022-11-01T08:56:51.835Z,21.90
2022-11-01T08:59:24.042Z,23.50
2022-11-01T09:01:56.141Z,23.30
2022-11-01T09:04:28.380Z,20.10
2022-11-01T09:07:00.366Z,17.10
2022-11-01T09:09:32.588Z,15.30
2022-11-01T09:12:10.856Z,16.60
2022-11-01T09:14:48.188Z,31.90
2022-11-01T09:17:20.255Z,25.00
2022-11-01T09:19:52.550Z,31.20
2022-11-01T09:22:25.000Z,34.80
2022-11-01T09:24:58.859Z,27.30
2022-11-01T09:27:30.897Z,47.70
2022-11-01T09:30:02.994Z,57.50
2022-11-01T09:32:35.105Z,35.70
2022-11-01T09:35:09.171Z,37.50
2022-11-01T09:37:41.162Z,26.70
2022-11-01T09:40:15.919Z,23.40
2022-11-01T09:45:23.192Z,22.90
2022-11-01T09:47:57.304Z,19.10
2022-11-01T09:50:34.568Z,19.60
2022-11-01T09:53:10.731Z,16.50
2022-11-01T09:55:49.660Z,18.30
2022-11-01T09:58:31.680Z,18.00
2022-11-01T10:01:13.463Z,19.00
2022-11-01T10:03:59.083Z,21.60
2022-11-01T10:06:36.345Z,23.80
2022-11-01T10:09:15.323Z,18.50
2022-11-01T10:12:12.863Z,19.00
2022-11-01T10:15:04.998Z,18.70
2022-11-01T10:17:52.652Z,15.50
2022-11-01T10:20:29.098Z,14.70
2022-11-01T10:23:02.799Z,20.30
2022-11-01T10:25:39.352Z,21.20
2022-11-01T10:28:20.322Z,21.80
2022-11-01T10:30:58.531Z,22.80
2022-11-01T10:33:36.231Z,27.60
2022-11-01T10:36:14.773Z,20.20
2022-11-01T10:39:23.379Z,18.10
2022-11-01T10:41:46.629Z,35.10
2022-11-01T10:44:25.690Z,23.10
2022-11-01T10:46:59.979Z,24.60
2022-11-01T10:52:34.196Z,29.20
2022-11-01T10:55:13.141Z,22.00
2022-11-01T10:57:49.686Z,22.70
2022-11-01T11:00:23.719Z,30.90
2022-11-01T11:02:59.373Z,174.40
2022-11-01T11:05:33.846Z,57.80
2022-11-01T11:08:15.281Z,36.40
2022-11-01T11:10:48.399Z,46.60
2022-11-01T11:13:23.948Z,29.20
2022-11-01T11:16:00.633Z,19.00
2022-11-01T11:18:35.417Z,32.70
2022-11-01T11:21:09.780Z,25.70
2022-11-01T11:23:46.376Z,78.30
2022-11-01T11:26:21.258Z,48.40
2022-11-01T11:28:57.382Z,24.00
2022-11-01T11:31:32.086Z,27.30
2022-11-01T11:36:42.746Z,21.70
2022-11-01T11:39:27.075Z,20.40
2022-11-01T11:42:14.218Z,28.30
2022-11-01T11:44:51.897Z,27.20
2022-11-01T11:47:29.638Z,20.80
2022-11-01T11:50:01.650Z,20.60
2022-11-01T11:52:38.923Z,25.50
2022-11-01T11:55:34.791Z,22.90
2022-11-01T11:58:17.325Z,20.70
2022-11-01T12:00:53.600Z,20.70
2022-11-01T12:03:25.814Z,20.90
2022-11-01T12:06:01.342Z,29.60
2022-11-01T12:08:45.097Z,23.20
2022-11-01T12:11:18.472Z,22.60
2022-11-01T12:14:04.261Z,22.70
2022-11-01T12:16:42.685Z,26.30
2022-11-01T12:19:28.713Z,24.50
2022-11-01T12:22:04.369Z,22.00
2022-11-01T12:24:44.039Z,18.70
2022-11-01T12:27:19.688Z,18.80
2022-11-01T12:29:56.561Z,19.30
2022-11-01T12:32:31.956Z,21.80
2022-11-01T12:35:12.335Z,80.90
2022-11-01T12:37:52.768Z,38.40
2022-11-01T12:40:29.351Z,26.30
2022-11-01T12:43:06.521Z,25.60
2022-11-01T12:45:50.148Z,22.90
2022-11-01T12:48:29.230Z,20.50
2022-11-01T12:51:26.112Z,22.70
2022-11-01T12:54:06.146Z,25.90
2022-11-01T12:56:38.218Z,22.40
2022-11-01T12:59:13.229Z,25.20
2022-11-01T13:01:53.872Z,25.90
2022-11-01T13:04:33.131Z,24.30
2022-11-01T13:07:25.088Z,21.40
2022-11-01T13:10:08.036Z,33.50
2022-11-01T13:12:51.346Z,27.40
2022-11-01T13:15:31.339Z,25.60
2022-11-01T13:18:10.930Z,25.00
2022-11-01T13:20:54.830Z,22.90
2022-11-01T13:23:33.955Z,21.30
2022-11-01T13:26:14.596Z,21.80
2022-11-01T13:29:17.618Z,22.40
2022-11-01T13:31:57.447Z,28.50
2022-11-01T13:34:37.925Z,34.70
2022-11-01T13:37:21.819Z,39.10
2022-11-01T13:40:07.937Z,31.80
2022-11-01T13:42:43.176Z,37.60
2022-11-01T13:45:36.162Z,47.60
2022-11-01T13:48:20.100Z,44.10
2022-11-01T13:51:24.029Z,28.40
2022-11-01T13:54:03.096Z,24.50
2022-11-01T13:56:38.056Z,27.30
2022-11-01T13:59:31.061Z,22.20
2022-11-01T14:02:36.301Z,24.10
2022-11-01T14:05:11.272Z,26.60
2022-11-01T14:08:20.453Z,26.60
2022-11-01T14:10:53.694Z,32.30
2022-11-01T14:13:38.952Z,30.00
2022-11-01T14:16:28.242Z,25.20
2022-11-01T14:19:21.377Z,28.30
2022-11-01T14:21:55.591Z,24.60
2022-11-01T14:24:35.577Z,23.80
2022-11-01T14:27:37.216Z,30.80
2022-11-01T14:30:16.544Z,41.80
2022-11-01T14:32:54.312Z,39.70
2022-11-01T14:35:30.717Z,40.00
2022-11-01T14:38:05.520Z,34.70
2022-11-01T14:40:42.105Z,31.90
2022-11-01T14:43:20.099Z,29.10
2022-11-01T14:45:58.080Z,32.20
2022-11-01T14:48:37.224Z,32.00
2022-11-01T14:51:18.196Z,29.80
2022-11-01T14:53:59.605Z,38.70
2022-11-01T14:56:41.009Z,51.00
2022-11-01T14:59:20.890Z,47.70
2022-11-01T15:01:58.235Z,107.80
2022-11-01T15:04:40.970Z,142.60
2022-11-01T15:07:27.666Z,64.40
2022-11-01T15:10:08.732Z,61.10
2022-11-01T15:12:49.196Z,34.50
2022-11-01T15:15:25.177Z,46.80
2022-11-01T15:18:00.643Z,41.20
2022-11-01T15:20:37.756Z,33.80
2022-11-01T15:23:12.203Z,28.60
2022-11-01T15:25:45.778Z,33.30
2022-11-01T15:28:25.039Z,33.00
2022-11-01T15:30:58.851Z,38.30
2022-11-01T15:33:32.267Z,33.10
2022-11-01T15:36:08.352Z,31.50
2022-11-01T15:38:53.683Z,61.80
2022-11-01T15:41:29.814Z,53.00
2022-11-01T15:44:05.283Z,41.40
2022-11-01T15:46:41.721Z,57.00
2022-11-01T15:49:18.876Z,47.90
2022-11-01T15:52:19.785Z,40.90
2022-11-01T15:54:57.515Z,36.00
2022-11-01T15:57:34.128Z,38.90
2022-11-01T16:00:18.164Z,45.00
2022-11-01T16:02:56.051Z,64.60
2022-11-01T16:05:35.085Z,53.60
2022-11-01T16:08:10.525Z,73.10
2022-11-01T16:10:46.948Z,42.20
2022-11-01T16:13:21.185Z,38.60
2022-11-01T16:16:08.026Z,60.90
2022-11-01T16:18:41.757Z,106.70
2022-11-01T16:21:32.352Z,119.00
2022-11-01T16:24:15.763Z,68.80
2022-11-01T16:27:01.369Z,40.00
2022-11-01T16:29:50.321Z,40.00
2022-11-01T16:32:26.568Z,75.30
2022-11-01T16:35:00.262Z,53.10
2022-11-01T16:37:37.734Z,40.50
2022-11-01T16:40:27.356Z,29.90
2022-11-01T16:43:00.969Z,92.80
2022-11-01T16:45:32.957Z,42.40
2022-11-01T16:48:05.629Z,61.50
2022-11-01T16:50:38.011Z,43.20
2022-11-01T16:53:13.330Z,58.80
2022-11-01T16:55:45.444Z,41.00
2022-11-01T16:58:22.705Z,38.60
2022-11-01T17:00:57.254Z,37.30
2022-11-01T17:03:31.216Z,40.20
2022-11-01T17:06:04.154Z,49.20
2022-11-01T17:08:36.934Z,55.20
2022-11-01T17:11:09.998Z,46.50
2022-11-01T17:13:42.424Z,63.40
2022-11-01T17:16:22.033Z,64.80
2022-11-01T17:18:58.376Z,42.80
2022-11-01T17:21:33.212Z,45.30
2022-11-01T17:26:36.653Z,47.90
2022-11-01T17:29:09.620Z,55.70
2022-11-01T17:31:41.763Z,44.40
2022-11-01T17:34:13.772Z,38.50
2022-11-01T17:36:49.832Z,60.80
2022-11-01T17:39:22.025Z,46.70
2022-11-01T17:41:53.963Z,38.90
2022-11-01T17:44:26.057Z,36.60
2022-11-01T17:46:58.148Z,44.60
2022-11-01T17:49:30.416Z,36.40
2022-11-01T17:52:04.369Z,36.80
2022-11-01T17:54:36.494Z,50.30
2022-11-01T17:57:08.508Z,35.90
2022-11-01T17:59:40.984Z,35.80
2022-11-01T18:02:13.694Z,49.10
2022-11-01T18:04:45.884Z,58.20
2022-11-01T18:07:18.129Z,47.90
2022-11-01T18:09:50.297Z,49.20
2022-11-01T18:12:33.423Z,43.80
2022-11-01T18:15:16.522Z,67.50
2022-11-01T18:17:57.598Z,40.30
2022-11-01T18:20:43.823Z,43.10
2022-11-01T18:25:49.949Z,42.40
2022-11-01T18:28:25.371Z,57.00
2022-11-01T18:31:01.232Z,42.10
2022-11-01T18:33:40.713Z,44.80
2022-11-01T18:36:21.538Z,43.10
2022-11-01T18:39:02.559Z,46.90
2022-11-01T18:41:34.575Z,41.30
2022-11-01T18:44:12.659Z,34.40
2022-11-01T18:46:52.479Z,40.90
2022-11-01T18:49:27.695Z,41.30
2022-11-01T18:52:00.605Z,50.40
2022-11-01T18:54:34.233Z,65.60
2022-11-01T18:57:16.308Z,70.70
2022-11-01T18:59:50.372Z,51.40
2022-11-01T19:02:25.663Z,46.30
2022-11-01T19:05:12.012Z,46.30
2022-11-01T19:08:09.717Z,42.70
2022-11-01T19:10:37.648Z,44.70
2022-11-01T19:13:13.947Z,43.20
2022-11-01T19:15:49.052Z,50.60
2022-11-01T19:18:26.466Z,61.50
2022-11-01T19:21:00.169Z,58.20
2022-11-01T19:23:38.153Z,67.50
2022-11-01T19:26:22.130Z,56.00
2022-11-01T19:28:54.443Z,52.00
2022-11-01T19:31:32.729Z,46.80
2022-11-01T19:34:10.351Z,44.20
2022-11-01T19:36:44.618Z,46.70
2022-11-01T19:39:24.850Z,43.90
2022-11-01T19:42:01.425Z,48.00
2022-11-01T19:44:33.794Z,54.50
2022-11-01T19:47:31.869Z,46.90
2022-11-01T19:50:11.590Z,44.40
2022-11-01T19:52:47.565Z,37.40
2022-11-01T19:55:44.471Z,37.80
2022-11-01T19:58:45.777Z,51.20
2022-11-01T20:01:40.930Z,45.60
2022-11-01T20:04:33.116Z,44.20
2022-11-01T20:07:16.539Z,43.00
2022-11-01T20:09:49.332Z,44.20
2022-11-01T20:12:22.318Z,39.00
2022-11-01T20:14:54.770Z,47.50
2022-11-01T20:17:27.166Z,43.70
2022-11-01T20:19:59.155Z,41.80
2022-11-01T20:22:31.172Z,41.00
2022-11-01T20:25:03.138Z,39.20
2022-11-01T20:27:35.177Z,37.50
2022-11-01T20:30:10.127Z,33.80
2022-11-01T20:32:42.250Z,36.10
2022-11-01T20:35:14.718Z,38.70
2022-11-01T20:37:46.921Z,36.90
2022-11-01T20:40:19.214Z,33.30
2022-11-01T20:42:51.361Z,34.60
2022-11-01T20:45:23.840Z,34.80
2022-11-01T20:47:56.077Z,33.40
2022-11-01T20:50:28.117Z,32.50
2022-11-01T20:53:00.520Z,34.00
2022-11-01T20:55:32.818Z,33.80
2022-11-01T20:58:05.916Z,36.70
2022-11-01T21:00:38.456Z,33.40
2022-11-01T21:03:16.284Z,35.20
2022-11-01T21:05:51.189Z,31.50
2022-11-01T21:08:25.634Z,34.50
2022-11-01T21:11:02.089Z,38.20
2022-11-01T21:13:36.884Z,59.80
2022-11-01T21:18:47.419Z,38.10
2022-11-01T21:21:39.175Z,46.90
2022-11-01T21:24:34.839Z,34.10
2022-11-01T21:27:26.815Z,35.10
2022-11-01T21:30:14.811Z,66.50
2022-11-01T21:32:47.566Z,40.50
2022-11-01T21:35:42.109Z,45.70
2022-11-01T21:38:33.272Z,85.20
2022-11-01T21:41:17.626Z,40.50
2022-11-01T21:43:49.716Z,40.50
2022-11-01T21:46:24.317Z,39.80
2022-11-01T21:49:00.709Z,42.30
2022-11-01T21:51:32.851Z,38.50
2022-11-01T21:54:05.071Z,39.00
2022-11-01T21:56:37.086Z,40.70
2022-11-01T21:59:09.036Z,36.10
2022-11-01T22:01:42.256Z,37.20
2022-11-01T22:04:15.331Z,40.20
2022-11-01T22:06:49.088Z,40.50
2022-11-01T22:09:22.793Z,42.50
2022-11-01T22:11:55.240Z,40.90
2022-11-01T22:14:27.689Z,39.20
2022-11-01T22:17:01.117Z,38.50
2022-11-01T22:19:33.129Z,41.40
2022-11-01T22:22:05.196Z,39.30
2022-11-01T22:24:37.182Z,36.40
2022-11-01T22:27:09.253Z,39.50
2022-11-01T22:29:41.212Z,39.10
2022-11-01T22:32:13.173Z,40.40
2022-11-01T22:34:47.857Z,46.00
2022-11-01T22:37:20.071Z,40.60
2022-11-01T22:39:53.217Z,37.90
2022-11-01T22:42:26.584Z,39.20
2022-11-01T22:44:58.650Z,36.30
2022-11-01T22:47:32.077Z,38.00
2022-11-01T22:50:05.004Z,38.00
2022-11-01T22:52:41.235Z,36.20
2022-11-01T22:55:23.094Z,37.50
2022-11-01T22:57:58.873Z,38.60
2022-11-01T23:00:33.802Z,36.80
2022-11-01T23:03:16.622Z,41.30
2022-11-01T23:05:51.477Z,43.00
2022-11-01T23:08:27.929Z,39.50
2022-11-01T23:11:01.755Z,39.70
2022-11-01T23:13:53.474Z,38.10
2022-11-01T23:16:28.770Z,38.10
2022-11-01T23:19:04.089Z,39.20
2022-11-01T23:21:36.378Z,40.30
2022-11-01T23:24:09.629Z,40.50
2022-11-01T23:26:41.772Z,38.60
2022-11-01T23:29:14.611Z,39.60
2022-11-01T23:31:46.830Z,40.60
2022-11-01T23:34:18.940Z,41.00
2022-11-01T23:36:51.188Z,40.70
2022-11-01T23:39:23.431Z,41.30
2022-11-01T23:41:56.624Z,48.60
2022-11-01T23:44:32.083Z,52.00
2022-11-01T23:47:15.366Z,83.60
2022-11-01T23:49:50.229Z,52.30
2022-11-01T23:52:34.408Z,44.30
2022-11-01T23:55:15.303Z,43.30
2022-11-01T23:57:47.730Z,43.90
